Time;durP1;ratioP1;P1;durP2;ratioP2;P2;SDS_P1;SDS_P2;PMS_P1;PMS_P2;Temp;Humidity;BMP_temperature;BMP_pressure;BME280_temperature;BME280_humidity;BME280_pressure;Samples;Min_cycle;Max_cycle;Signal;HPM_P1;HPM_P2
2023/12/06 00:02:08;;;;;;;31.93;11.07;;;;;;;1.63;100.00;100181.28;6029517;28;20054;-77
2023/12/06 00:05:03;;;;;;;24.60;10.33;;;;;;;1.58;100.00;100170.28;6033278;28;20065;-78
2023/12/06 00:07:59;;;;;;;24.00;10.27;;;;;;;1.65;100.00;100180.25;6027358;28;20297;-77
2023/12/06 00:10:54;;;;;;;27.30;10.13;;;;;;;1.61;100.00;100172.69;6032137;28;20408;-77
2023/12/06 00:13:49;;;;;;;25.50;9.73;;;;;;;1.56;100.00;100174.78;6027242;28;20662;-77
2023/12/06 00:16:45;;;;;;;24.07;8.90;;;;;;;1.56;100.00;100173.00;6028993;28;20066;-77
2023/12/06 00:19:40;;;;;;;22.77;8.97;;;;;;;1.54;100.00;100168.81;6027086;28;20030;-76
2023/12/06 00:22:35;;;;;;;23.07;8.17;;;;;;;1.63;100.00;100183.91;6026403;28;20092;-77
2023/12/06 00:25:31;;;;;;;21.27;8.87;;;;;;;1.56;100.00;100175.63;6028089;28;20280;-76
2023/12/06 00:28:26;;;;;;;20.92;8.18;;;;;;;1.63;100.00;100184.72;6027600;28;20057;-76
2023/12/06 00:31:22;;;;;;;21.97;8.20;;;;;;;1.67;100.00;100187.97;6028377;28;20558;-78
2023/12/06 00:34:17;;;;;;;19.53;8.70;;;;;;;1.64;100.00;100190.78;6027438;28;20052;-76
2023/12/06 00:37:12;;;;;;;18.97;8.17;;;;;;;1.61;100.00;100185.75;6027483;28;20265;-76
2023/12/06 00:40:08;;;;;;;21.47;8.50;;;;;;;1.62;100.00;100187.44;6027888;28;20492;-77
2023/12/06 00:43:04;;;;;;;19.00;8.07;;;;;;;1.73;100.00;100198.00;6025979;28;20408;-76
2023/12/06 00:45:59;;;;;;;19.47;8.10;;;;;;;1.67;100.00;100193.19;6028477;28;20044;-77
2023/12/06 00:48:54;;;;;;;19.67;9.07;;;;;;;1.64;100.00;100196.00;6026072;28;20034;-76
2023/12/06 00:51:50;;;;;;;24.23;8.90;;;;;;;1.67;100.00;100190.56;6028000;28;20084;-77
2023/12/06 00:54:47;;;;;;;19.43;8.77;;;;;;;1.77;100.00;100197.69;6026810;28;20037;-75
2023/12/06 00:57:43;;;;;;;24.38;9.55;;;;;;;1.80;100.00;100196.66;6027100;28;20030;-77
2023/12/06 01:00:38;;;;;;;23.63;9.18;;;;;;;1.91;100.00;100199.38;6027536;28;20520;-76
2023/12/06 01:03:34;;;;;;;22.87;8.83;;;;;;;1.98;100.00;100203.25;6026174;28;20034;-76
2023/12/06 01:06:30;;;;;;;18.73;8.20;;;;;;;2.04;100.00;100210.66;6032285;28;20054;-77
2023/12/06 01:09:25;;;;;;;23.50;8.45;;;;;;;2.08;100.00;100212.16;6009996;28;20026;-77
2023/12/06 01:12:21;;;;;;;18.40;7.70;;;;;;;2.09;100.00;100208.56;6024959;28;20037;-77
2023/12/06 01:15:16;;;;;;;21.03;7.77;;;;;;;2.05;100.00;100191.44;6027867;28;20050;-76
2023/12/06 01:18:12;;;;;;;20.47;8.47;;;;;;;2.16;100.00;100209.00;6026059;28;20293;-78
2023/12/06 01:21:07;;;;;;;17.38;6.90;;;;;;;2.19;100.00;100214.88;6026621;28;20101;-76
2023/12/06 01:24:03;;;;;;;23.07;7.40;;;;;;;2.20;100.00;100208.66;6026386;28;20073;-76
2023/12/06 01:26:58;;;;;;;18.15;7.68;;;;;;;2.22;100.00;100217.28;6026300;28;20038;-76
2023/12/06 01:29:54;;;;;;;16.80;7.30;;;;;;;2.31;100.00;100221.84;6025901;28;20034;-76
2023/12/06 01:32:49;;;;;;;20.57;7.60;;;;;;;2.26;100.00;100220.50;6026088;28;20034;-76
2023/12/06 01:35:44;;;;;;;17.95;7.65;;;;;;;2.25;100.00;100224.06;6026975;28;20062;-76
2023/12/06 01:38:40;;;;;;;16.60;7.37;;;;;;;2.21;100.00;100228.66;6025537;28;20054;-76
2023/12/06 01:41:35;;;;;;;17.45;7.43;;;;;;;2.26;100.00;100241.41;6008844;28;20033;-78
2023/12/06 01:44:31;;;;;;;15.93;6.80;;;;;;;2.19;100.00;100230.56;6024997;28;20038;-76
2023/12/06 01:47:27;;;;;;;17.67;7.13;;;;;;;2.20;100.00;100240.06;6026014;28;20118;-74
2023/12/06 01:50:23;;;;;;;19.75;8.05;;;;;;;2.18;100.00;100249.78;6026351;28;20049;-75
2023/12/06 01:53:19;;;;;;;15.90;7.43;;;;;;;2.15;100.00;100244.78;6024867;28;20481;-75
2023/12/06 01:56:15;;;;;;;16.60;7.57;;;;;;;2.04;100.00;100238.63;6026636;28;20072;-74
2023/12/06 01:59:11;;;;;;;16.25;7.07;;;;;;;2.12;100.00;100250.22;6023723;28;20116;-76
2023/12/06 02:02:07;;;;;;;15.27;7.18;;;;;;;2.08;100.00;100248.75;6004826;28;20034;-75
2023/12/06 02:05:02;;;;;;;20.35;7.70;;;;;;;2.01;100.00;100244.84;6030496;28;20077;-75
2023/12/06 02:07:58;;;;;;;14.23;6.00;;;;;;;2.04;100.00;100247.28;6025370;28;20034;-76
2023/12/06 02:10:54;;;;;;;14.40;6.18;;;;;;;1.96;100.00;100249.56;6025714;28;20080;-75
2023/12/06 02:13:49;;;;;;;13.30;5.43;;;;;;;1.96;100.00;100254.78;6025259;28;20058;-76
2023/12/06 02:16:44;;;;;;;11.47;4.67;;;;;;;2.01;100.00;100252.69;6026285;28;20501;-75
2023/12/06 02:19:40;;;;;;;12.83;5.60;;;;;;;1.91;100.00;100241.19;6008485;28;20364;-75
2023/12/06 02:22:36;;;;;;;10.80;5.20;;;;;;;1.97;100.00;100253.03;6006944;28;20293;-74
2023/12/06 02:25:31;;;;;;;9.57;4.68;;;;;;;1.93;100.00;100251.56;6023966;28;20540;-74
2023/12/06 02:28:27;;;;;;;12.20;5.77;;;;;;;1.96;100.00;100262.63;6025070;28;20080;-74
2023/12/06 02:31:22;;;;;;;11.10;4.40;;;;;;;1.95;100.00;100263.59;6024774;28;20065;-75
2023/12/06 02:34:20;;;;;;;11.20;5.20;;;;;;;1.93;100.00;100270.69;6024970;28;20030;-73
2023/12/06 02:37:17;;;;;;;10.43;4.93;;;;;;;1.85;100.00;100265.13;6024728;28;20022;-75
2023/12/06 02:40:13;;;;;;;12.57;5.15;;;;;;;1.87;100.00;100265.03;6023210;28;20477;-74
2023/12/06 02:43:09;;;;;;;11.40;4.68;;;;;;;1.83;100.00;100256.56;6007560;28;20062;-73
2023/12/06 02:46:06;;;;;;;9.60;4.73;;;;;;;1.82;100.00;100262.75;6025459;28;20044;-75
2023/12/06 02:49:02;;;;;;;9.00;4.25;;;;;;;1.76;100.00;100261.38;6022777;28;20285;-75
2023/12/06 02:51:57;;;;;;;8.57;3.25;;;;;;;1.68;100.00;100261.03;6025286;28;20065;-75
2023/12/06 02:54:53;;;;;;;6.50;3.10;;;;;;;1.67;100.00;100263.75;6022510;28;20046;-78
2023/12/06 02:57:48;;;;;;;8.57;3.43;;;;;;;1.60;100.00;100272.94;6022727;28;20117;-76
2023/12/06 03:00:43;;;;;;;9.10;3.13;;;;;;;1.56;100.00;100261.84;6023572;28;20105;-75
2023/12/06 03:03:38;;;;;;;6.43;3.00;;;;;;;1.54;100.00;100260.25;6024856;28;20121;-76
2023/12/06 03:06:34;;;;;;;6.57;2.80;;;;;;;1.51;100.00;100263.06;6030497;28;20089;-76
2023/12/06 03:09:29;;;;;;;7.00;3.03;;;;;;;1.48;100.00;100266.72;6024128;28;20450;-77
2023/12/06 03:12:24;;;;;;;5.80;3.20;;;;;;;1.38;100.00;100259.59;6025056;28;20037;-78
2023/12/06 03:15:20;;;;;;;8.40;2.97;;;;;;;1.33;100.00;100257.28;6024203;28;20041;-76
2023/12/06 03:18:15;;;;;;;6.47;2.97;;;;;;;1.33;100.00;100259.06;6023146;28;20038;-76
2023/12/06 03:21:10;;;;;;;5.37;2.60;;;;;;;1.35;100.00;100270.22;6024371;28;20290;-75
2023/12/06 03:24:06;;;;;;;5.83;2.60;;;;;;;1.37;100.00;100276.19;6022922;28;20068;-75
2023/12/06 03:27:01;;;;;;;5.80;2.95;;;;;;;1.33;100.00;100286.00;6024609;28;20657;-75
2023/12/06 03:29:57;;;;;;;7.38;3.35;;;;;;;1.19;100.00;100267.78;6023518;28;20030;-74
2023/12/06 03:32:52;;;;;;;6.17;2.97;;;;;;;1.20;100.00;100280.72;6023765;28;20068;-79
2023/12/06 03:35:47;;;;;;;6.27;3.40;;;;;;;1.22;100.00;100287.63;6027655;28;20106;-77
2023/12/06 03:38:43;;;;;;;6.87;2.60;;;;;;;1.15;100.00;100281.94;6022121;28;20118;-76
2023/12/06 03:41:38;;;;;;;11.68;4.07;;;;;;;1.12;100.00;100288.19;6011642;28;20213;-76
2023/12/06 03:44:34;;;;;;;8.37;3.67;;;;;;;1.08;100.00;100286.72;6028696;28;20046;-76
2023/12/06 03:47:29;;;;;;;8.20;3.40;;;;;;;1.10;100.00;100290.06;6028070;28;20140;-77
2023/12/06 03:50:26;;;;;;;8.70;4.10;;;;;;;1.08;100.00;100302.41;6029146;28;20045;-75
2023/12/06 03:53:21;;;;;;;9.23;4.47;;;;;;;1.10;100.00;100303.13;6029017;28;20492;-74
2023/12/06 03:56:16;;;;;;;6.97;3.23;;;;;;;0.97;100.00;100291.78;6031349;28;20031;-75
2023/12/06 03:59:12;;;;;;;8.60;3.53;;;;;;;0.99;100.00;100297.75;6028272;28;20077;-74
2023/12/06 04:02:08;;;;;;;8.10;4.23;;;;;;;1.01;100.00;100311.53;6029345;28;20027;-76
2023/12/06 04:05:03;;;;;;;12.93;3.60;;;;;;;0.97;100.00;100311.81;6029838;28;20014;-74
2023/12/06 04:07:58;;;;;;;8.27;3.53;;;;;;;1.01;100.00;100319.34;6030927;28;20110;-75
2023/12/06 04:10:54;;;;;;;9.43;3.75;;;;;;;0.93;100.00;100311.16;6028324;28;20110;-77
2023/12/06 04:13:49;;;;;;;9.25;3.78;;;;;;;0.93;100.00;100319.00;6010765;28;20038;-75
2023/12/06 04:16:46;;;;;;;8.88;3.38;;;;;;;0.88;100.00;100312.38;6027307;28;20121;-75
2023/12/06 04:19:41;;;;;;;10.75;4.07;;;;;;;0.86;100.00;100316.88;6028658;28;20026;-73
2023/12/06 04:22:36;;;;;;;8.00;3.97;;;;;;;0.85;100.00;100316.00;6028298;28;20034;-74
2023/12/06 04:25:32;;;;;;;12.63;4.27;;;;;;;0.83;100.00;100325.72;6028436;28;20065;-77
2023/12/06 04:28:27;;;;;;;10.33;4.57;;;;;;;0.79;100.00;100328.63;6028011;28;20034;-76
2023/12/06 04:31:22;;;;;;;9.63;3.93;;;;;;;0.78;100.00;100330.38;6026983;28;20100;-75
2023/12/06 04:34:18;;;;;;;7.97;3.60;;;;;;;0.81;100.00;100331.97;6027244;28;20061;-75
2023/12/06 04:37:14;;;;;;;8.82;4.10;;;;;;;0.86;100.00;100349.03;6010588;28;20038;-76
2023/12/06 04:40:09;;;;;;;9.90;4.27;;;;;;;0.74;100.00;100336.72;6026936;28;20038;-75
2023/12/06 04:43:05;;;;;;;10.05;4.05;;;;;;;0.76;100.00;100331.41;6026735;28;20261;-77
2023/12/06 04:46:00;;;;;;;10.10;4.57;;;;;;;0.69;100.00;100340.53;6026924;28;20030;-73
2023/12/06 04:48:56;;;;;;;9.93;3.70;;;;;;;0.73;100.00;100345.50;6024534;28;20053;-75
2023/12/06 04:51:51;;;;;;;11.13;4.53;;;;;;;0.68;100.00;100344.91;6028120;28;20030;-73
2023/12/06 04:54:46;;;;;;;9.97;4.10;;;;;;;0.65;100.00;100339.06;6026659;28;20026;-75
2023/12/06 04:57:41;;;;;;;9.10;4.20;;;;;;;0.70;100.00;100343.06;6026662;28;20371;-77
2023/12/06 05:00:37;;;;;;;14.83;4.77;;;;;;;0.69;100.00;100345.75;6026596;28;20034;-73
2023/12/06 05:03:32;;;;;;;13.27;5.00;;;;;;;0.68;100.00;100350.13;6025705;28;20034;-76
2023/12/06 05:06:27;;;;;;;8.60;3.53;;;;;;;0.65;100.00;100350.34;6029260;28;20031;-75
2023/12/06 05:09:23;;;;;;;11.33;4.60;;;;;;;0.64;100.00;100353.00;6024124;28;20118;-75
2023/12/06 05:12:18;;;;;;;9.23;3.97;;;;;;;0.59;100.00;100350.69;6026187;28;20430;-74
2023/12/06 05:15:13;;;;;;;12.87;4.93;;;;;;;0.66;100.00;100351.16;6027240;28;20026;-76
2023/12/06 05:18:09;;;;;;;10.05;4.10;;;;;;;0.64;100.00;100360.84;6025183;28;20022;-75
2023/12/06 05:21:04;;;;;;;10.43;4.27;;;;;;;0.67;100.00;100364.13;6025127;28;20057;-74
2023/12/06 05:23:59;;;;;;;13.23;4.43;;;;;;;0.65;100.00;100368.59;6025749;28;20038;-77
2023/12/06 05:26:55;;;;;;;10.40;4.70;;;;;;;0.68;100.00;100370.19;6007241;28;20053;-74
2023/12/06 05:29:50;;;;;;;9.83;4.50;;;;;;;0.65;100.00;100358.16;6025119;28;20395;-74
2023/12/06 05:32:45;;;;;;;9.73;4.37;;;;;;;0.63;100.00;100365.22;6025054;28;20101;-75
2023/12/06 05:35:41;;;;;;;10.50;4.27;;;;;;;0.64;100.00;100364.28;6026014;28;20045;-75
2023/12/06 05:38:36;;;;;;;9.23;4.57;;;;;;;0.64;100.00;100369.50;6024484;28;20053;-73
2023/12/06 05:41:32;;;;;;;10.67;4.00;;;;;;;0.67;100.00;100379.75;6026853;28;20026;-75
2023/12/06 05:44:27;;;;;;;13.65;4.97;;;;;;;0.62;100.00;100375.75;6024779;28;20126;-74
2023/12/06 05:47:23;;;;;;;12.63;4.90;;;;;;;0.58;100.00;100368.09;6026020;28;20037;-77
2023/12/06 05:50:18;;;;;;;13.10;5.20;;;;;;;0.54;100.00;100371.00;6025132;28;20030;-77
2023/12/06 05:53:13;;;;;;;11.97;4.73;;;;;;;0.58;100.00;100380.31;6024604;28;20038;-74
2023/12/06 05:56:09;;;;;;;14.13;4.90;;;;;;;0.52;100.00;100380.66;6025881;28;20038;-76
2023/12/06 05:59:05;;;;;;;12.70;4.82;;;;;;;0.55;100.00;100385.69;6024269;28;20030;-75
2023/12/06 06:02:00;;;;;;;12.53;4.97;;;;;;;0.52;100.00;100373.69;6025386;28;20046;-73
2023/12/06 06:04:55;;;;;;;12.07;4.27;;;;;;;0.58;100.00;100382.91;6010239;28;20030;-75
2023/12/06 06:07:51;;;;;;;13.27;5.27;;;;;;;0.52;100.00;100391.94;6024596;28;20297;-77
2023/12/06 06:10:46;;;;;;;11.55;4.10;;;;;;;0.49;100.00;100396.53;6025683;28;20018;-74
2023/12/06 06:13:41;;;;;;;14.87;5.23;;;;;;;0.43;100.00;100386.44;6024721;28;20031;-76
2023/12/06 06:16:37;;;;;;;10.55;4.68;;;;;;;0.42;100.00;100396.03;6024754;28;20076;-77
2023/12/06 06:19:32;;;;;;;14.70;4.97;;;;;;;0.40;100.00;100381.41;6023372;28;20038;-74
2023/12/06 06:22:27;;;;;;;11.20;5.10;;;;;;;0.39;100.00;100395.34;6023766;28;20061;-77
2023/12/06 06:25:23;;;;;;;15.60;5.13;;;;;;;0.38;100.00;100404.94;6025222;28;20034;-75
2023/12/06 06:28:18;;;;;;;12.87;5.17;;;;;;;0.41;100.00;100409.97;6024546;28;20281;-75
2023/12/06 06:31:13;;;;;;;14.63;4.93;;;;;;;0.34;100.00;100408.66;6023993;28;20499;-76
2023/12/06 06:34:09;;;;;;;12.10;4.33;;;;;;;0.35;100.00;100412.13;6006464;28;20038;-76
2023/12/06 06:37:04;;;;;;;11.90;4.53;;;;;;;0.39;100.00;100424.03;6023746;28;20061;-74
2023/12/06 06:39:59;;;;;;;12.30;4.80;;;;;;;0.34;100.00;100419.09;6024853;28;20088;-74
2023/12/06 06:42:54;;;;;;;10.93;4.60;;;;;;;0.37;100.00;100426.75;6023868;28;20058;-77
2023/12/06 06:45:50;;;;;;;13.17;4.80;;;;;;;0.35;100.00;100430.38;6024251;28;20034;-77
2023/12/06 06:48:45;;;;;;;13.93;4.80;;;;;;;0.34;100.00;100428.69;6022839;28;20085;-74
2023/12/06 06:51:40;;;;;;;12.77;4.83;;;;;;;0.31;100.00;100434.06;6024830;28;20365;-74
2023/12/06 06:54:36;;;;;;;14.87;5.10;;;;;;;0.39;100.00;100442.28;6023716;28;20045;-73
2023/12/06 06:57:31;;;;;;;15.27;5.07;;;;;;;0.33;100.00;100435.66;6023606;28;20034;-76
2023/12/06 07:00:26;;;;;;;13.63;5.33;;;;;;;0.32;100.00;100435.75;6023201;28;20040;-75
2023/12/06 07:03:21;;;;;;;14.43;5.33;;;;;;;0.34;100.00;100441.72;6024101;28;20034;-75
2023/12/06 07:06:17;;;;;;;14.80;6.03;;;;;;;0.39;100.00;100447.50;6025397;28;20077;-74
2023/12/06 07:09:12;;;;;;;16.63;5.78;;;;;;;0.35;100.00;100451.25;6024090;28;20026;-76
2023/12/06 07:12:08;;;;;;;18.50;5.97;;;;;;;0.30;100.00;100448.06;6023409;28;20109;-76
2023/12/06 07:15:03;;;;;;;18.08;6.65;;;;;;;0.27;100.00;100458.66;6023670;28;20035;-75
2023/12/06 07:17:59;;;;;;;13.88;5.35;;;;;;;0.31;100.00;100454.94;6023858;28;20375;-76
2023/12/06 07:20:54;;;;;;;18.73;5.90;;;;;;;0.30;100.00;100453.28;6023095;28;20756;-74
2023/12/06 07:23:49;;;;;;;19.03;6.27;;;;;;;0.38;100.00;100471.94;6023753;28;20109;-76
2023/12/06 07:26:45;;;;;;;15.43;6.20;;;;;;;0.34;100.00;100463.44;6023600;28;20030;-74
2023/12/06 07:29:42;;;;;;;13.90;5.10;;;;;;;0.36;100.00;100479.81;6006619;28;20499;-77
2023/12/06 07:32:38;;;;;;;11.30;5.55;;;;;;;0.34;100.00;100465.19;6021207;28;20041;-75
2023/12/06 07:35:33;;;;;;;18.30;5.97;;;;;;;0.31;100.00;100475.78;6023396;28;20038;-75
2023/12/06 07:38:29;;;;;;;16.30;5.88;;;;;;;0.27;100.00;100475.13;6023837;28;20594;-77
2023/12/06 07:41:24;;;;;;;17.63;5.87;;;;;;;0.29;100.00;100486.31;6023348;28;20031;-76
2023/12/06 07:44:21;;;;;;;13.17;5.93;;;;;;;0.33;100.00;100484.34;6021397;28;20297;-76
2023/12/06 07:47:17;;;;;;;13.32;5.93;;;;;;;0.35;100.00;100498.16;6023162;28;20470;-73
2023/12/06 07:50:12;;;;;;;14.32;5.75;;;;;;;0.31;100.00;100494.03;6023282;28;20093;-76
2023/12/06 07:53:08;;;;;;;15.27;5.97;;;;;;;0.28;100.00;100486.38;6025154;28;20034;-76
2023/12/06 07:56:04;;;;;;;16.73;7.10;;;;;;;0.29;100.00;100486.31;6023707;28;20343;-75
2023/12/06 07:59:00;;;;;;;20.50;7.30;;;;;;;0.24;100.00;100490.97;6023464;28;20126;-78
2023/12/06 08:01:55;;;;;;;18.05;7.25;;;;;;;0.31;100.00;100496.66;6024034;28;20034;-75
2023/12/06 08:04:51;;;;;;;17.48;7.05;;;;;;;0.24;100.00;100497.94;6021854;28;20046;-76
2023/12/06 08:07:47;;;;;;;18.30;6.90;;;;;;;0.31;100.00;100505.31;6022404;28;20424;-75
2023/12/06 08:10:43;;;;;;;19.50;6.93;;;;;;;0.30;100.00;100508.03;6027329;28;20282;-74
2023/12/06 08:13:39;;;;;;;19.70;7.90;;;;;;;0.23;100.00;100506.66;6024224;28;20470;-74
2023/12/06 08:16:34;;;;;;;25.83;8.33;;;;;;;0.20;100.00;100514.66;6022365;28;20030;-76
2023/12/06 08:19:29;;;;;;;25.20;9.67;;;;;;;0.20;100.00;100518.13;6010909;28;20041;-77
2023/12/06 08:22:26;;;;;;;25.77;8.50;;;;;;;0.26;100.00;100519.53;6026128;28;20650;-75
2023/12/06 08:25:21;;;;;;;24.75;9.50;;;;;;;0.20;100.00;100514.66;6029465;28;20049;-75
2023/12/06 08:28:16;;;;;;;24.63;8.73;;;;;;;0.17;100.00;100517.44;6028985;28;20022;-73
2023/12/06 08:31:12;;;;;;;22.70;9.90;;;;;;;0.26;100.00;100519.53;6024550;28;20070;-75
2023/12/06 08:34:08;;;;;;;27.67;9.20;;;;;;;0.22;100.00;100523.25;6026847;28;20466;-76
2023/12/06 08:37:03;;;;;;;23.60;8.73;;;;;;;0.22;100.00;100524.06;6028470;28;20109;-75
2023/12/06 08:39:58;;;;;;;26.73;9.88;;;;;;;0.25;100.00;100529.13;6027942;28;20037;-76
2023/12/06 08:42:54;;;;;;;24.67;8.53;;;;;;;0.31;100.00;100540.97;6023801;28;20040;-73
2023/12/06 08:45:49;;;;;;;22.37;7.80;;;;;;;0.34;100.00;100538.19;6027265;28;20411;-77
2023/12/06 08:48:44;;;;;;;24.97;8.83;;;;;;;0.32;100.00;100542.66;6025291;28;20060;-74
2023/12/06 08:51:40;;;;;;;24.67;8.57;;;;;;;0.29;100.00;100541.06;6027957;28;20645;-78
2023/12/06 08:54:37;;;;;;;22.07;8.13;;;;;;;0.22;100.00;100544.94;6024316;28;20026;-75
2023/12/06 08:57:32;;;;;;;24.70;9.38;;;;;;;0.31;100.00;100554.00;6026416;28;20401;-75
2023/12/06 09:00:27;;;;;;;28.10;9.87;;;;;;;0.30;100.00;100547.13;6025074;28;20026;-75
2023/12/06 09:03:23;;;;;;;22.90;9.37;;;;;;;0.31;100.00;100548.78;6023752;28;20125;-74
2023/12/06 09:06:18;;;;;;;25.20;8.63;;;;;;;0.30;100.00;100557.56;6025675;28;20102;-74
2023/12/06 09:09:17;;;;;;;25.00;10.10;;;;;;;0.34;100.00;100559.06;6026803;28;20034;-74
2023/12/06 09:12:14;;;;;;;26.50;9.20;;;;;;;0.27;100.00;100557.72;6025725;28;20033;-75
2023/12/06 09:15:09;;;;;;;22.92;9.57;;;;;;;0.38;100.00;100565.81;6022122;28;20041;-74
2023/12/06 09:18:05;;;;;;;21.52;8.93;;;;;;;0.30;100.00;100562.78;6026280;28;20430;-74
2023/12/06 09:21:00;;;;;;;22.75;9.23;;;;;;;0.37;100.00;100574.53;6023523;28;20048;-74
2023/12/06 09:23:55;;;;;;;22.50;8.20;;;;;;;0.37;100.00;100564.09;6024553;28;20088;-73
2023/12/06 09:26:51;;;;;;;27.23;9.10;;;;;;;0.53;100.00;100565.78;6025108;28;20477;-73
2023/12/06 09:29:46;;;;;;;22.20;8.20;;;;;;;0.66;100.00;100573.75;6024003;28;20041;-73
2023/12/06 09:32:41;;;;;;;24.20;8.83;;;;;;;0.61;100.00;100575.78;6023162;28;20823;-75
2023/12/06 09:35:37;;;;;;;25.80;10.15;;;;;;;0.58;100.00;100579.41;6020165;28;20289;-75
2023/12/06 09:38:32;;;;;;;23.83;9.07;;;;;;;0.63;100.00;100576.53;6026038;28;20042;-75
2023/12/06 09:41:29;;;;;;;21.95;8.43;;;;;;;0.70;100.00;100577.03;6019911;28;20023;-75
2023/12/06 09:44:25;;;;;;;21.58;8.48;;;;;;;0.62;100.00;100580.06;6024469;28;20030;-75
2023/12/06 09:47:22;;;;;;;23.23;8.25;;;;;;;0.58;100.00;100581.16;6009584;28;20050;-74
2023/12/06 09:50:17;;;;;;;21.63;8.48;;;;;;;0.62;100.00;100590.50;6023006;28;20038;-73
2023/12/06 09:53:13;;;;;;;21.93;8.33;;;;;;;0.57;100.00;100582.91;6025584;28;20501;-73
2023/12/06 09:56:08;;;;;;;23.10;8.00;;;;;;;0.58;100.00;100588.97;6025675;28;20489;-74
2023/12/06 09:59:05;;;;;;;22.33;8.45;;;;;;;0.64;100.00;100583.44;6010316;28;20042;-73
2023/12/06 10:02:00;;;;;;;24.90;9.03;;;;;;;0.66;100.00;100592.00;6025549;28;20042;-72
2023/12/06 10:04:58;;;;;;;18.35;7.88;;;;;;;0.79;100.00;100592.97;6024880;28;20651;-74
2023/12/06 10:07:54;;;;;;;21.83;8.43;;;;;;;0.81;100.00;100588.53;6026305;28;20034;-74
2023/12/06 10:11:04;;;;;;;18.33;7.50;;;;;;;0.74;100.00;100595.00;6021086;28;20042;-73
2023/12/06 10:13:59;;;;;;;20.40;8.52;;;;;;;0.80;100.00;100589.47;6024033;28;20570;-73
2023/12/06 10:16:54;;;;;;;23.13;8.27;;;;;;;0.79;100.00;100587.75;6021693;28;20038;-74
2023/12/06 10:19:50;;;;;;;20.10;8.03;;;;;;;0.74;100.00;100584.59;6022682;28;20161;-74
2023/12/06 10:22:47;;;;;;;21.48;7.80;;;;;;;0.76;100.00;100592.34;6022737;28;20057;-73
2023/12/06 10:25:45;;;;;;;18.60;7.35;;;;;;;0.81;100.00;100593.75;6021253;28;20030;-74
2023/12/06 10:28:40;;;;;;;17.52;8.10;;;;;;;0.84;100.00;100596.19;6024737;28;20042;-73
2023/12/06 10:31:37;;;;;;;18.33;7.93;;;;;;;0.82;100.00;100600.63;6023133;28;20080;-73
2023/12/06 10:34:33;;;;;;;19.67;7.35;;;;;;;0.78;100.00;100595.69;6022684;28;20198;-73
2023/12/06 10:37:29;;;;;;;21.92;8.77;;;;;;;0.76;100.00;100600.16;6008268;28;20038;-74
2023/12/06 10:40:25;;;;;;;21.88;8.73;;;;;;;0.66;100.00;100601.59;6023050;28;20751;-74
2023/12/06 10:43:21;;;;;;;22.13;8.27;;;;;;;0.65;100.00;100600.78;6009824;28;20034;-74
2023/12/06 10:46:17;;;;;;;22.95;9.30;;;;;;;0.61;100.00;100599.25;6024255;28;20449;-73
2023/12/06 10:49:14;;;;;;;21.23;8.65;;;;;;;0.57;100.00;100602.97;6024432;28;20062;-73
2023/12/06 10:52:10;;;;;;;28.42;8.75;;;;;;;0.49;100.00;100611.19;6007191;28;20566;-73
2023/12/06 10:55:06;;;;;;;22.60;8.43;;;;;;;0.45;100.00;100604.50;6007098;28;20046;-75
2023/12/06 10:58:03;;;;;;;20.92;8.98;;;;;;;0.48;100.00;100595.66;6024504;28;20065;-74
2023/12/06 11:00:58;;;;;;;26.42;9.45;;;;;;;0.40;100.00;100600.44;6006618;28;20117;-73
2023/12/06 11:03:54;;;;;;;26.83;9.23;;;;;;;0.24;100.00;100590.03;6024512;28;20031;-75
2023/12/06 11:07:20;;;;;;;23.90;9.65;;;;;;;0.33;100.00;100604.31;6022375;28;20521;-73
2023/12/06 11:10:29;;;;;;;29.63;9.27;;;;;;;0.36;100.00;100609.34;6017941;28;20030;-74
2023/12/06 11:14:02;;;;;;;30.15;10.68;;;;;;;0.29;100.00;100608.03;6022784;28;20125;-73
2023/12/06 11:17:06;;;;;;;24.88;9.30;;;;;;;0.23;100.00;100613.56;6022639;28;20101;-76
2023/12/06 11:20:03;;;;;;;25.98;9.70;;;;;;;0.31;100.00;100614.81;6021429;28;20101;-75
2023/12/06 11:22:58;;;;;;;28.75;10.23;;;;;;;0.29;100.00;100615.84;6022732;28;20034;-75
2023/12/06 11:25:54;;;;;;;29.87;9.63;;;;;;;0.25;100.00;100609.09;6023361;28;20034;-74
2023/12/06 11:28:54;;;;;;;27.80;10.55;;;;;;;0.11;100.00;100588.16;6023799;28;20034;-73
2023/12/06 11:31:57;;;;;;;25.55;10.38;;;;;;;0.23;100.00;100603.13;6023986;28;20038;-72
2023/12/06 11:34:55;;;;;;;32.03;11.05;;;;;;;0.12;100.00;100602.88;6022191;28;20069;-74
2023/12/06 11:37:54;;;;;;;33.13;11.73;;;;;;;0.15;100.00;100605.31;6024979;28;20034;-74
2023/12/06 11:40:52;;;;;;;30.88;10.82;;;;;;;0.20;100.00;100598.09;6022990;28;20398;-75
2023/12/06 11:43:49;;;;;;;30.52;11.10;;;;;;;0.28;100.00;100591.53;6024012;28;20042;-74
2023/12/06 11:46:52;;;;;;;36.33;10.75;;;;;;;0.31;100.00;100600.94;6022840;28;20549;-74
2023/12/06 11:49:51;;;;;;;32.30;12.65;;;;;;;0.35;100.00;100607.69;6021386;28;20073;-74
2023/12/06 11:52:51;;;;;;;29.30;11.98;;;;;;;0.26;100.00;100595.16;6023116;28;20073;-75
2023/12/06 11:55:46;;;;;;;32.90;12.32;;;;;;;0.19;100.00;100591.22;6002206;28;20041;-73
2023/12/06 11:58:42;;;;;;;29.93;11.83;;;;;;;0.30;100.00;100594.88;6027155;28;20030;-72
2023/12/06 12:01:38;;;;;;;37.35;14.43;;;;;;;0.37;100.00;100595.41;6026717;28;20281;-73
2023/12/06 12:04:36;;;;;;;32.72;12.70;;;;;;;0.34;100.00;100596.41;6027826;28;20389;-73
2023/12/06 12:07:32;;;;;;;33.95;12.18;;;;;;;0.31;100.00;100599.19;6027512;28;20039;-73
2023/12/06 12:10:27;;;;;;;31.05;12.32;;;;;;;0.39;100.00;100603.97;6024844;28;20046;-72
2023/12/06 12:13:23;;;;;;;29.38;10.93;;;;;;;0.34;100.00;100603.38;6027308;28;20038;-73
2023/12/06 12:16:19;;;;;;;33.63;12.00;;;;;;;0.46;100.00;100607.94;6025749;28;20088;-71
2023/12/06 12:19:14;;;;;;;32.50;11.90;;;;;;;0.46;100.00;100615.78;6009761;28;20038;-72
2023/12/06 12:22:11;;;;;;;34.80;12.07;;;;;;;0.45;100.00;100608.84;6027780;28;20121;-75
2023/12/06 12:25:07;;;;;;;30.65;11.32;;;;;;;0.38;100.00;100608.34;6027170;28;20056;-75
2023/12/06 12:28:02;;;;;;;31.65;12.27;;;;;;;0.49;100.00;100616.41;6028442;28;20022;-73
2023/12/06 12:31:05;;;;;;;39.35;11.77;;;;;;;0.44;100.00;100601.94;6026845;28;20109;-73
2023/12/06 12:34:00;;;;;;;34.85;12.40;;;;;;;0.61;100.00;100620.13;6027023;28;20041;-73
2023/12/06 12:36:59;;;;;;;34.35;12.43;;;;;;;0.57;100.00;100623.84;6011826;28;20034;-74
2023/12/06 12:39:54;;;;;;;31.55;11.82;;;;;;;0.59;100.00;100611.53;6009098;28;20034;-73
2023/12/06 12:42:50;;;;;;;32.00;12.00;;;;;;;0.75;100.00;100621.97;6028242;28;20030;-75
2023/12/06 12:45:46;;;;;;;36.27;12.83;;;;;;;0.63;100.00;100620.88;6026083;28;20391;-73
2023/12/06 12:48:41;;;;;;;38.70;13.38;;;;;;;0.54;100.00;100614.38;6025617;28;20512;-71
2023/12/06 12:51:37;;;;;;;32.17;11.87;;;;;;;0.57;100.00;100634.28;6014718;28;20038;-73
2023/12/06 12:54:36;;;;;;;36.22;12.82;;;;;;;0.63;100.00;100628.69;6022852;28;20800;-73
2023/12/06 12:57:36;;;;;;;31.83;11.40;;;;;;;0.52;100.00;100642.34;6024374;28;20382;-72
2023/12/06 13:00:32;;;;;;;34.78;11.95;;;;;;;0.37;100.00;100627.53;6028385;28;20104;-73
2023/12/06 13:03:29;;;;;;;30.85;11.15;;;;;;;0.43;100.00;100644.63;6027163;28;20038;-74
2023/12/06 13:06:24;;;;;;;31.92;11.88;;;;;;;0.33;100.00;100646.88;6026515;28;20038;-73
2023/12/06 13:09:20;;;;;;;31.03;11.43;;;;;;;0.35;100.00;100652.88;6026465;28;20589;-74
2023/12/06 13:12:15;;;;;;;31.02;11.57;;;;;;;0.34;100.00;100647.72;6026776;28;20027;-74
2023/12/06 13:15:11;;;;;;;33.58;10.65;;;;;;;0.28;100.00;100648.03;6025751;28;20038;-74
2023/12/06 13:18:07;;;;;;;35.13;12.77;;;;;;;0.30;100.00;100641.00;6026553;28;20105;-74
2023/12/06 13:21:02;;;;;;;34.50;11.30;;;;;;;0.28;100.00;100635.84;6026438;28;20054;-73
2023/12/06 13:23:57;;;;;;;29.95;11.57;;;;;;;0.32;100.00;100649.56;6026070;28;20030;-74
2023/12/06 13:26:53;;;;;;;33.87;12.13;;;;;;;0.36;100.00;100653.69;6026154;28;20042;-73
2023/12/06 13:29:48;;;;;;;31.50;12.63;;;;;;;0.26;100.00;100660.31;6025694;28;20277;-74